createdAt,value
2022-08-21T00:11:51.139Z,12.20
2022-08-21T00:17:35.685Z,8.90
2022-08-21T00:23:14.670Z,7.40
2022-08-21T00:29:13.771Z,6.20
2022-08-21T00:34:16.498Z,5.10
2022-08-21T00:39:18.598Z,5.30
2022-08-21T00:44:40.371Z,5.90
2022-08-21T00:50:21.437Z,6.20
2022-08-21T00:55:29.556Z,6.60
2022-08-21T01:00:45.406Z,6.30
2022-08-21T01:05:57.234Z,5.00
2022-08-21T01:11:06.561Z,5.20
2022-08-21T01:16:31.118Z,4.40
2022-08-21T01:21:36.841Z,3.80
2022-08-21T01:26:43.284Z,4.30
2022-08-21T01:31:54.468Z,4.20
2022-08-21T01:37:05.754Z,4.20
2022-08-21T01:42:38.582Z,3.20
2022-08-21T01:47:45.034Z,3.40
2022-08-21T01:52:53.089Z,3.40
2022-08-21T01:57:55.692Z,2.80
2022-08-21T02:03:13.340Z,3.00
2022-08-21T02:08:34.466Z,2.40
2022-08-21T02:13:47.203Z,2.20
2022-08-21T02:18:53.333Z,2.60
2022-08-21T02:23:59.223Z,2.30
2022-08-21T02:29:09.632Z,2.80
2022-08-21T02:34:29.405Z,2.60
2022-08-21T02:39:36.734Z,2.50
2022-08-21T02:44:48.134Z,2.70
2022-08-21T02:50:00.220Z,2.90
2022-08-21T02:55:12.373Z,3.70
2022-08-21T03:00:18.090Z,3.90
2022-08-21T03:05:46.655Z,4.40
2022-08-21T03:11:02.604Z,4.70
2022-08-21T03:16:15.980Z,4.70
2022-08-21T03:21:25.326Z,5.30
2022-08-21T03:26:46.889Z,5.00
2022-08-21T03:32:11.676Z,5.50
2022-08-21T03:37:17.387Z,5.20
2022-08-21T03:42:35.750Z,6.20
2022-08-21T03:48:30.074Z,6.30
2022-08-21T03:53:41.935Z,6.80
2022-08-21T03:59:15.557Z,7.00
2022-08-21T04:04:49.749Z,8.40
2022-08-21T04:10:34.580Z,8.00
2022-08-21T04:15:45.868Z,8.50
2022-08-21T04:21:13.410Z,8.70
2022-08-21T04:26:29.153Z,9.10
2022-08-21T04:31:42.028Z,7.70
2022-08-21T04:36:53.765Z,6.90
2022-08-21T04:41:56.341Z,7.80
2022-08-21T04:47:19.445Z,6.90
2022-08-21T04:52:43.451Z,6.50
2022-08-21T04:57:54.602Z,6.20
2022-08-21T05:03:25.098Z,5.00
2022-08-21T05:09:15.763Z,5.60
2022-08-21T05:15:07.017Z,5.70
2022-08-21T05:20:13.680Z,5.60
2022-08-21T05:25:17.617Z,5.30
2022-08-21T05:30:32.940Z,5.60
2022-08-21T05:35:59.472Z,4.60
2022-08-21T05:41:29.653Z,3.40
2022-08-21T05:47:38.815Z,2.00
2022-08-21T05:53:39.654Z,0.90
2022-08-21T05:59:37.803Z,1.10
2022-08-21T06:05:36.496Z,1.50
2022-08-21T06:11:02.202Z,1.50
2022-08-21T06:16:22.278Z,1.70
2022-08-21T06:21:54.073Z,1.70
2022-08-21T06:27:39.224Z,1.80
2022-08-21T06:33:20.960Z,1.70
2022-08-21T06:39:12.325Z,1.30
2022-08-21T06:45:32.537Z,1.00
2022-08-21T06:50:48.168Z,0.80
2022-08-21T06:56:41.275Z,0.70
2022-08-21T07:02:34.273Z,0.60
2022-08-21T07:07:50.066Z,0.40
2022-08-21T07:13:24.844Z,0.40
2022-08-21T07:19:03.341Z,0.50
2022-08-21T07:24:24.334Z,0.60
2022-08-21T07:29:51.811Z,0.50
2022-08-21T07:35:11.764Z,0.30
2022-08-21T07:40:27.085Z,0.70
2022-08-21T07:46:12.531Z,0.40
2022-08-21T07:51:48.826Z,0.80
2022-08-21T07:56:54.877Z,0.60
2022-08-21T08:01:58.248Z,0.80
2022-08-21T08:07:33.526Z,1.00
2022-08-21T08:13:03.464Z,1.40
2022-08-21T08:18:50.738Z,1.80
2022-08-21T08:24:26.387Z,2.80
2022-08-21T08:30:04.273Z,3.30
2022-08-21T08:35:37.069Z,2.70
2022-08-21T08:41:29.218Z,2.00
2022-08-21T08:46:53.653Z,3.10
2022-08-21T08:52:39.513Z,3.20
2022-08-21T08:57:46.389Z,4.50
2022-08-21T09:03:00.869Z,4.50
2022-08-21T09:08:32.800Z,5.60
2022-08-21T09:15:09.846Z,6.60
2022-08-21T09:21:10.538Z,7.20
2022-08-21T09:26:49.434Z,9.60
2022-08-21T09:31:54.481Z,7.90
2022-08-21T09:37:00.672Z,7.50
2022-08-21T09:42:09.135Z,8.50
2022-08-21T09:47:16.146Z,9.00
2022-08-21T09:52:34.390Z,8.50
2022-08-21T09:57:46.474Z,8.30
2022-08-21T10:03:25.530Z,8.30
2022-08-21T10:08:44.939Z,7.10
2022-08-21T10:14:28.592Z,7.80
2022-08-21T10:20:13.259Z,8.00
2022-08-21T10:25:50.494Z,7.10
2022-08-21T10:31:48.177Z,6.50
2022-08-21T10:37:40.669Z,6.40
2022-08-21T10:43:40.257Z,5.70
2022-08-21T10:49:23.153Z,6.20
2022-08-21T10:55:26.604Z,5.80
2022-08-21T11:01:34.612Z,5.80
2022-08-21T11:07:02.890Z,3.90
2022-08-21T11:13:30.617Z,2.30
2022-08-21T11:19:35.721Z,2.70
2022-08-21T11:24:53.274Z,2.10
2022-08-21T11:30:00.926Z,1.90
2022-08-21T11:35:41.731Z,1.40
2022-08-21T11:41:33.160Z,1.80
2022-08-21T11:48:09.560Z,1.00
2022-08-21T11:53:41.522Z,1.10
2022-08-21T12:05:00.672Z,1.50
2022-08-21T12:11:08.407Z,1.80
2022-08-21T12:16:57.831Z,1.80
2022-08-21T12:23:46.182Z,1.80
2022-08-21T12:29:25.394Z,2.40
2022-08-21T12:34:42.238Z,2.40
2022-08-21T12:39:48.922Z,2.20
2022-08-21T12:45:20.505Z,2.50
2022-08-21T12:50:37.972Z,2.90
2022-08-21T12:55:45.374Z,3.00
2022-08-21T13:07:34.762Z,3.40
2022-08-21T13:13:12.745Z,4.20
2022-08-21T13:18:44.098Z,4.20
2022-08-21T13:24:44.655Z,3.40
2022-08-21T13:30:31.793Z,4.20
2022-08-21T13:36:13.099Z,3.80
2022-08-21T13:42:06.841Z,4.90
2022-08-21T13:47:29.091Z,5.00
2022-08-21T13:53:57.248Z,6.30
2022-08-21T13:59:50.013Z,7.90
2022-08-21T14:05:52.011Z,7.20
2022-08-21T14:11:15.087Z,8.40
2022-08-21T14:17:39.102Z,10.00
2022-08-21T14:23:18.429Z,11.00
2022-08-21T14:28:53.670Z,9.10
2022-08-21T14:34:13.755Z,10.10
2022-08-21T14:39:54.052Z,9.20
2022-08-21T14:45:27.922Z,8.50
2022-08-21T14:50:39.621Z,7.00
2022-08-21T14:56:28.591Z,8.10
2022-08-21T15:01:51.026Z,7.70
2022-08-21T15:07:24.322Z,7.00
2022-08-21T15:12:43.670Z,7.00
2022-08-21T15:17:49.250Z,6.90
2022-08-21T15:23:13.074Z,7.10
2022-08-21T15:29:06.896Z,7.90
2022-08-21T15:34:45.465Z,7.70
2022-08-21T15:40:05.817Z,7.10
2022-08-21T15:45:39.102Z,7.80
2022-08-21T15:51:04.436Z,7.60
2022-08-21T15:57:09.887Z,7.70
2022-08-21T16:02:34.739Z,7.30
2022-08-21T16:08:17.763Z,8.40
2022-08-21T16:13:41.488Z,7.70
2022-08-21T16:19:08.372Z,8.30
2022-08-21T16:25:06.266Z,9.50
2022-08-21T16:30:59.837Z,9.20
2022-08-21T16:36:36.706Z,8.20
2022-08-21T16:42:10.094Z,9.50
2022-08-21T16:47:44.892Z,10.00
2022-08-21T16:53:22.034Z,9.50
2022-08-21T16:59:28.612Z,8.50
2022-08-21T17:05:14.109Z,8.10
2022-08-21T17:10:59.378Z,8.60
2022-08-21T17:16:06.834Z,8.50
2022-08-21T17:21:26.690Z,9.40
2022-08-21T17:26:57.041Z,6.60
2022-08-21T17:32:25.048Z,5.50
2022-08-21T17:37:55.313Z,5.40
2022-08-21T17:43:15.284Z,6.10
2022-08-21T17:48:29.994Z,5.90
2022-08-21T17:53:35.174Z,4.20
2022-08-21T17:58:52.455Z,3.80
2022-08-21T18:04:21.395Z,3.60
2022-08-21T18:09:47.375Z,3.40
2022-08-21T18:15:10.758Z,3.80
2022-08-21T18:20:43.466Z,3.90
2022-08-21T18:26:07.540Z,4.10
2022-08-21T18:31:51.413Z,3.30
2022-08-21T18:37:37.629Z,3.30
2022-08-21T18:43:09.672Z,4.00
2022-08-21T18:48:32.699Z,3.80
2022-08-21T18:53:52.797Z,4.20
2022-08-21T18:58:58.558Z,4.10
2022-08-21T19:10:24.511Z,4.40
2022-08-21T19:16:09.661Z,5.20
2022-08-21T19:22:10.876Z,4.80
2022-08-21T19:27:41.765Z,5.90
2022-08-21T19:33:23.331Z,5.40
2022-08-21T19:38:28.229Z,5.60
2022-08-21T19:43:58.440Z,5.00
2022-08-21T19:49:25.897Z,4.40
2022-08-21T19:55:29.277Z,3.90
2022-08-21T20:00:31.823Z,3.30
2022-08-21T20:05:39.791Z,3.50
2022-08-21T20:10:44.869Z,3.30
2022-08-21T20:15:57.650Z,3.40
2022-08-21T20:21:20.847Z,3.60
2022-08-21T20:27:11.253Z,3.80
2022-08-21T20:32:46.237Z,4.00
2022-08-21T20:38:27.067Z,3.90
2022-08-21T20:44:46.790Z,4.40
2022-08-21T20:50:29.528Z,3.60
2022-08-21T20:55:54.221Z,3.30
2022-08-21T21:01:19.599Z,3.30
2022-08-21T21:06:38.471Z,2.80
2022-08-21T21:11:55.320Z,2.30
2022-08-21T21:17:14.162Z,1.90
2022-08-21T21:22:47.449Z,2.10
2022-08-21T21:28:44.767Z,1.50
2022-08-21T21:34:17.155Z,1.30
2022-08-21T21:39:52.378Z,1.20
2022-08-21T21:45:38.259Z,1.30
2022-08-21T21:52:00.074Z,1.40
2022-08-21T21:58:05.130Z,1.30
2022-08-21T22:03:50.247Z,0.60
2022-08-21T22:09:05.170Z,0.80
2022-08-21T22:14:15.425Z,0.80
2022-08-21T22:19:24.275Z,0.80
2022-08-21T22:24:53.084Z,0.80
2022-08-21T22:30:02.018Z,1.00
2022-08-21T22:35:17.455Z,0.50
2022-08-21T22:41:29.215Z,0.50
2022-08-21T22:46:43.662Z,0.50
2022-08-21T22:51:54.624Z,0.60
2022-08-21T22:57:45.186Z,0.60
2022-08-21T23:03:58.429Z,0.80
2022-08-21T23:10:12.894Z,0.70
2022-08-21T23:16:01.048Z,1.40
2022-08-21T23:21:55.628Z,0.90
2022-08-21T23:28:05.648Z,0.90
2022-08-21T23:34:38.063Z,0.80
2022-08-21T23:41:16.822Z,1.10
2022-08-21T23:47:56.130Z,1.10
2022-08-21T23:54:13.458Z,1.20
